Terminal Aerodrome Forecast
Issued by NWS

Home | Current Version | Previous Version | Text Only | Print | Product List | Glossary On
Versions: 1 2 3 4 5 6 7 8 9 10 11 12 13 14 15 16 17 18 19 20 21 22 23 24 25 26 27 28 29 30 31 32 33 34 35 36 37 38 39
000
FTUS41 KRNK 271723
TAFBCB
TAF
KBCB 271723Z 2718/2818 00000KT P6SM SCT040 BKN100
     FM272000 18005KT P6SM VCTS BKN035CB
     FM280000 17004KT P6SM SCT045 BKN100 BKN250
     FM280400 00000KT 5SM BR SCT050 SCT250
      TEMPO 2808/2812 2SM BR SCT020
     FM281500 16007KT P6SM SCT250=

USA.gov is the U.S. government's official web portal to all federal, state and local government web resources and services.